sensor_id;sensor_type;location;lat;lon;timestamp;temperature;humidity
19680;DHT22;9989;48.962;9.182;2023-07-31T00:00:38;18.20;99.90
19680;DHT22;9989;48.962;9.182;2023-07-31T00:03:04;18.20;99.90
19680;DHT22;9989;48.962;9.182;2023-07-31T00:05:29;18.20;99.90
19680;DHT22;9989;48.962;9.182;2023-07-31T00:07:55;18.20;99.90
19680;DHT22;9989;48.962;9.182;2023-07-31T00:10:20;18.20;99.90
19680;DHT22;9989;48.962;9.182;2023-07-31T00:12:46;18.20;99.90
19680;DHT22;9989;48.962;9.182;2023-07-31T00:15:13;18.20;99.90
19680;DHT22;9989;48.962;9.182;2023-07-31T00:17:39;18.10;99.90
19680;DHT22;9989;48.962;9.182;2023-07-31T00:20:05;18.10;99.90
19680;DHT22;9989;48.962;9.182;2023-07-31T00:22:31;18.10;99.90
19680;DHT22;9989;48.962;9.182;2023-07-31T00:24:57;18.00;99.90
19680;DHT22;9989;48.962;9.182;2023-07-31T00:27:23;18.00;99.90
19680;DHT22;9989;48.962;9.182;2023-07-31T00:29:48;18.00;99.90
19680;DHT22;9989;48.962;9.182;2023-07-31T00:32:14;18.00;99.90
19680;DHT22;9989;48.962;9.182;2023-07-31T00:34:39;17.90;99.90
19680;DHT22;9989;48.962;9.182;2023-07-31T00:37:05;17.90;99.90
19680;DHT22;9989;48.962;9.182;2023-07-31T00:39:33;17.80;99.90
19680;DHT22;9989;48.962;9.182;2023-07-31T00:41:59;17.80;99.90
19680;DHT22;9989;48.962;9.182;2023-07-31T00:44:24;17.70;99.90
19680;DHT22;9989;48.962;9.182;2023-07-31T00:46:50;17.70;99.90
19680;DHT22;9989;48.962;9.182;2023-07-31T00:49:16;17.70;99.90
19680;DHT22;9989;48.962;9.182;2023-07-31T00:51:42;17.70;99.90
19680;DHT22;9989;48.962;9.182;2023-07-31T00:54:07;17.70;99.90
19680;DHT22;9989;48.962;9.182;2023-07-31T00:56:33;17.60;99.90
19680;DHT22;9989;48.962;9.182;2023-07-31T00:58:59;17.60;99.90
19680;DHT22;9989;48.962;9.182;2023-07-31T01:01:24;17.60;99.90
19680;DHT22;9989;48.962;9.182;2023-07-31T01:03:51;17.60;99.90
19680;DHT22;9989;48.962;9.182;2023-07-31T01:06:40;17.50;99.90
19680;DHT22;9989;48.962;9.182;2023-07-31T01:09:11;17.50;99.90
19680;DHT22;9989;48.962;9.182;2023-07-31T01:11:50;17.50;99.90
19680;DHT22;9989;48.962;9.182;2023-07-31T01:14:17;17.50;99.90
19680;DHT22;9989;48.962;9.182;2023-07-31T01:16:42;17.50;99.90
19680;DHT22;9989;48.962;9.182;2023-07-31T01:19:09;17.50;99.90
19680;DHT22;9989;48.962;9.182;2023-07-31T01:26:31;17.50;99.90
19680;DHT22;9989;48.962;9.182;2023-07-31T01:29:10;17.50;99.90
19680;DHT22;9989;48.962;9.182;2023-07-31T01:31:42;17.50;99.90
19680;DHT22;9989;48.962;9.182;2023-07-31T01:34:12;17.40;99.90
19680;DHT22;9989;48.962;9.182;2023-07-31T01:36:39;17.40;99.90
19680;DHT22;9989;48.962;9.182;2023-07-31T01:39:04;17.40;99.90
19680;DHT22;9989;48.962;9.182;2023-07-31T01:41:30;17.40;99.90
19680;DHT22;9989;48.962;9.182;2023-07-31T01:43:56;17.30;99.90
19680;DHT22;9989;48.962;9.182;2023-07-31T01:46:21;17.30;99.90
19680;DHT22;9989;48.962;9.182;2023-07-31T01:48:47;17.30;99.90
19680;DHT22;9989;48.962;9.182;2023-07-31T01:51:12;17.30;99.90
19680;DHT22;9989;48.962;9.182;2023-07-31T01:53:39;17.30;99.90
19680;DHT22;9989;48.962;9.182;2023-07-31T01:56:04;17.30;99.90
19680;DHT22;9989;48.962;9.182;2023-07-31T01:58:30;17.30;99.90
19680;DHT22;9989;48.962;9.182;2023-07-31T02:00:55;17.30;99.90
19680;DHT22;9989;48.962;9.182;2023-07-31T02:03:21;17.30;99.90
19680;DHT22;9989;48.962;9.182;2023-07-31T02:05:48;17.30;99.90
19680;DHT22;9989;48.962;9.182;2023-07-31T02:08:14;17.30;99.90
19680;DHT22;9989;48.962;9.182;2023-07-31T02:10:40;17.30;99.90
19680;DHT22;9989;48.962;9.182;2023-07-31T02:13:06;17.30;99.90
19680;DHT22;9989;48.962;9.182;2023-07-31T02:15:31;17.30;99.90
19680;DHT22;9989;48.962;9.182;2023-07-31T02:17:57;17.30;99.90
19680;DHT22;9989;48.962;9.182;2023-07-31T02:20:23;17.30;99.90
19680;DHT22;9989;48.962;9.182;2023-07-31T02:22:48;17.30;99.90
19680;DHT22;9989;48.962;9.182;2023-07-31T02:25:14;17.30;99.90
19680;DHT22;9989;48.962;9.182;2023-07-31T02:27:40;17.30;99.90
19680;DHT22;9989;48.962;9.182;2023-07-31T02:30:06;17.20;99.90
19680;DHT22;9989;48.962;9.182;2023-07-31T02:32:32;17.20;99.90
19680;DHT22;9989;48.962;9.182;2023-07-31T02:34:57;17.20;99.90
19680;DHT22;9989;48.962;9.182;2023-07-31T02:37:23;17.20;99.90
19680;DHT22;9989;48.962;9.182;2023-07-31T02:39:49;17.20;99.90
19680;DHT22;9989;48.962;9.182;2023-07-31T02:42:14;17.20;99.90
19680;DHT22;9989;48.962;9.182;2023-07-31T02:44:40;17.20;99.90
19680;DHT22;9989;48.962;9.182;2023-07-31T02:47:06;17.20;99.90
19680;DHT22;9989;48.962;9.182;2023-07-31T02:49:31;17.20;99.90
19680;DHT22;9989;48.962;9.182;2023-07-31T02:51:57;17.30;99.90
19680;DHT22;9989;48.962;9.182;2023-07-31T02:54:22;17.30;99.90
19680;DHT22;9989;48.962;9.182;2023-07-31T02:56:48;17.30;99.90
19680;DHT22;9989;48.962;9.182;2023-07-31T02:59:15;17.30;99.90
19680;DHT22;9989;48.962;9.182;2023-07-31T03:01:40;17.30;99.90
19680;DHT22;9989;48.962;9.182;2023-07-31T03:04:06;17.30;99.90
19680;DHT22;9989;48.962;9.182;2023-07-31T03:06:32;17.30;99.90
19680;DHT22;9989;48.962;9.182;2023-07-31T03:08:57;17.30;99.90
19680;DHT22;9989;48.962;9.182;2023-07-31T03:11:23;17.30;99.90
19680;DHT22;9989;48.962;9.182;2023-07-31T03:13:48;17.20;99.90
19680;DHT22;9989;48.962;9.182;2023-07-31T03:16:14;17.20;99.90
19680;DHT22;9989;48.962;9.182;2023-07-31T03:18:39;17.20;99.90
19680;DHT22;9989;48.962;9.182;2023-07-31T03:21:05;17.20;99.90
19680;DHT22;9989;48.962;9.182;2023-07-31T03:23:31;17.20;99.90
19680;DHT22;9989;48.962;9.182;2023-07-31T03:25:57;17.20;99.90
19680;DHT22;9989;48.962;9.182;2023-07-31T03:28:23;17.20;99.90
19680;DHT22;9989;48.962;9.182;2023-07-31T03:30:49;17.30;99.90
19680;DHT22;9989;48.962;9.182;2023-07-31T03:33:14;17.30;99.90
19680;DHT22;9989;48.962;9.182;2023-07-31T03:35:40;17.30;99.90
19680;DHT22;9989;48.962;9.182;2023-07-31T03:38:05;17.30;99.90
19680;DHT22;9989;48.962;9.182;2023-07-31T03:40:31;17.30;99.90
19680;DHT22;9989;48.962;9.182;2023-07-31T03:42:56;17.30;99.90
19680;DHT22;9989;48.962;9.182;2023-07-31T03:45:22;17.30;99.90
19680;DHT22;9989;48.962;9.182;2023-07-31T03:47:47;17.30;99.90
19680;DHT22;9989;48.962;9.182;2023-07-31T03:50:13;17.20;99.90
19680;DHT22;9989;48.962;9.182;2023-07-31T03:52:39;17.20;99.90
19680;DHT22;9989;48.962;9.182;2023-07-31T03:55:04;17.20;99.90
19680;DHT22;9989;48.962;9.182;2023-07-31T03:57:30;17.20;99.90
19680;DHT22;9989;48.962;9.182;2023-07-31T03:59:58;17.20;99.90
19680;DHT22;9989;48.962;9.182;2023-07-31T04:02:23;17.20;99.90
19680;DHT22;9989;48.962;9.182;2023-07-31T04:04:49;17.20;99.90
19680;DHT22;9989;48.962;9.182;2023-07-31T04:07:14;17.20;99.90
19680;DHT22;9989;48.962;9.182;2023-07-31T04:09:40;17.20;99.90
19680;DHT22;9989;48.962;9.182;2023-07-31T04:12:06;17.20;99.90
19680;DHT22;9989;48.962;9.182;2023-07-31T04:14:32;17.20;99.90
19680;DHT22;9989;48.962;9.182;2023-07-31T04:16:57;17.20;99.90
19680;DHT22;9989;48.962;9.182;2023-07-31T04:19:23;17.20;99.90
19680;DHT22;9989;48.962;9.182;2023-07-31T04:21:48;17.20;99.90
19680;DHT22;9989;48.962;9.182;2023-07-31T04:24:14;17.20;99.90
19680;DHT22;9989;48.962;9.182;2023-07-31T04:26:40;17.20;99.90
19680;DHT22;9989;48.962;9.182;2023-07-31T04:29:05;17.30;99.90
19680;DHT22;9989;48.962;9.182;2023-07-31T04:31:31;17.30;99.90
19680;DHT22;9989;48.962;9.182;2023-07-31T04:33:56;17.30;99.90
19680;DHT22;9989;48.962;9.182;2023-07-31T04:36:22;17.30;99.90
19680;DHT22;9989;48.962;9.182;2023-07-31T04:38:47;17.40;99.90
19680;DHT22;9989;48.962;9.182;2023-07-31T04:41:13;17.40;99.90
19680;DHT22;9989;48.962;9.182;2023-07-31T04:43:39;17.40;99.90
19680;DHT22;9989;48.962;9.182;2023-07-31T04:46:05;17.50;99.90
19680;DHT22;9989;48.962;9.182;2023-07-31T04:48:31;17.50;99.90
19680;DHT22;9989;48.962;9.182;2023-07-31T04:50:56;17.50;99.90
19680;DHT22;9989;48.962;9.182;2023-07-31T04:53:22;17.60;99.90
19680;DHT22;9989;48.962;9.182;2023-07-31T04:55:47;17.60;99.90
19680;DHT22;9989;48.962;9.182;2023-07-31T04:58:13;17.60;99.90
19680;DHT22;9989;48.962;9.182;2023-07-31T05:00:38;17.70;99.90
19680;DHT22;9989;48.962;9.182;2023-07-31T05:03:04;17.70;99.90
19680;DHT22;9989;48.962;9.182;2023-07-31T05:05:30;17.80;99.90
19680;DHT22;9989;48.962;9.182;2023-07-31T05:07:56;17.80;99.90
19680;DHT22;9989;48.962;9.182;2023-07-31T05:10:21;17.90;99.90
19680;DHT22;9989;48.962;9.182;2023-07-31T05:12:47;17.90;99.90
19680;DHT22;9989;48.962;9.182;2023-07-31T05:15:12;17.90;99.90
19680;DHT22;9989;48.962;9.182;2023-07-31T05:17:38;17.90;99.90
19680;DHT22;9989;48.962;9.182;2023-07-31T05:20:04;17.90;99.90
19680;DHT22;9989;48.962;9.182;2023-07-31T05:22:29;17.90;99.90
19680;DHT22;9989;48.962;9.182;2023-07-31T05:24:55;17.90;99.90
19680;DHT22;9989;48.962;9.182;2023-07-31T05:27:21;18.00;99.90
19680;DHT22;9989;48.962;9.182;2023-07-31T05:29:46;18.10;99.90
19680;DHT22;9989;48.962;9.182;2023-07-31T05:32:12;18.10;99.90
19680;DHT22;9989;48.962;9.182;2023-07-31T05:34:37;18.20;99.90
19680;DHT22;9989;48.962;9.182;2023-07-31T05:37:03;18.20;99.90
19680;DHT22;9989;48.962;9.182;2023-07-31T05:39:29;18.30;99.90
19680;DHT22;9989;48.962;9.182;2023-07-31T05:41:54;18.40;99.90
19680;DHT22;9989;48.962;9.182;2023-07-31T05:44:20;18.50;99.90
19680;DHT22;9989;48.962;9.182;2023-07-31T05:46:45;18.60;99.90
19680;DHT22;9989;48.962;9.182;2023-07-31T05:49:11;18.70;99.90
19680;DHT22;9989;48.962;9.182;2023-07-31T05:51:36;18.80;99.90
19680;DHT22;9989;48.962;9.182;2023-07-31T05:54:02;18.80;99.90
19680;DHT22;9989;48.962;9.182;2023-07-31T05:56:27;18.90;99.90
19680;DHT22;9989;48.962;9.182;2023-07-31T05:58:54;18.90;99.90
19680;DHT22;9989;48.962;9.182;2023-07-31T06:01:20;19.00;99.90
19680;DHT22;9989;48.962;9.182;2023-07-31T06:03:46;19.10;99.90
19680;DHT22;9989;48.962;9.182;2023-07-31T06:06:12;19.10;99.90
19680;DHT22;9989;48.962;9.182;2023-07-31T06:08:38;19.20;99.90
19680;DHT22;9989;48.962;9.182;2023-07-31T06:11:05;19.20;99.90
19680;DHT22;9989;48.962;9.182;2023-07-31T06:13:31;19.30;99.90
19680;DHT22;9989;48.962;9.182;2023-07-31T06:15:57;19.40;99.90
19680;DHT22;9989;48.962;9.182;2023-07-31T06:18:22;19.40;99.90
19680;DHT22;9989;48.962;9.182;2023-07-31T06:20:48;19.40;99.90
19680;DHT22;9989;48.962;9.182;2023-07-31T06:23:19;19.50;99.90
19680;DHT22;9989;48.962;9.182;2023-07-31T06:25:44;19.50;99.90
19680;DHT22;9989;48.962;9.182;2023-07-31T06:28:10;19.60;99.90
19680;DHT22;9989;48.962;9.182;2023-07-31T06:30:36;19.60;99.90
19680;DHT22;9989;48.962;9.182;2023-07-31T06:33:01;19.60;99.90
19680;DHT22;9989;48.962;9.182;2023-07-31T06:35:27;19.70;99.90
19680;DHT22;9989;48.962;9.182;2023-07-31T06:37:52;19.70;99.90
19680;DHT22;9989;48.962;9.182;2023-07-31T06:40:18;19.90;99.90
19680;DHT22;9989;48.962;9.182;2023-07-31T06:42:44;20.00;99.90
19680;DHT22;9989;48.962;9.182;2023-07-31T06:45:10;20.10;99.90
19680;DHT22;9989;48.962;9.182;2023-07-31T06:47:36;20.20;99.90
19680;DHT22;9989;48.962;9.182;2023-07-31T06:50:01;20.30;99.90
19680;DHT22;9989;48.962;9.182;2023-07-31T06:52:27;20.40;99.90
19680;DHT22;9989;48.962;9.182;2023-07-31T06:55:03;20.50;99.90
19680;DHT22;9989;48.962;9.182;2023-07-31T06:57:29;20.70;99.90
19680;DHT22;9989;48.962;9.182;2023-07-31T06:59:55;20.80;99.90
19680;DHT22;9989;48.962;9.182;2023-07-31T07:02:21;21.00;99.90
19680;DHT22;9989;48.962;9.182;2023-07-31T07:04:49;21.10;99.90
19680;DHT22;9989;48.962;9.182;2023-07-31T07:07:15;21.20;99.90
19680;DHT22;9989;48.962;9.182;2023-07-31T07:09:40;21.30;99.90
19680;DHT22;9989;48.962;9.182;2023-07-31T07:12:06;21.40;99.90
19680;DHT22;9989;48.962;9.182;2023-07-31T07:14:32;21.50;99.90
19680;DHT22;9989;48.962;9.182;2023-07-31T07:16:58;21.60;99.90
19680;DHT22;9989;48.962;9.182;2023-07-31T07:19:23;21.60;99.90
19680;DHT22;9989;48.962;9.182;2023-07-31T07:21:49;21.70;99.90
19680;DHT22;9989;48.962;9.182;2023-07-31T07:24:14;21.70;99.90
19680;DHT22;9989;48.962;9.182;2023-07-31T07:26:40;21.70;99.90
19680;DHT22;9989;48.962;9.182;2023-07-31T07:29:06;21.80;99.90
19680;DHT22;9989;48.962;9.182;2023-07-31T07:31:33;21.80;99.90
19680;DHT22;9989;48.962;9.182;2023-07-31T07:33:58;21.70;99.90
19680;DHT22;9989;48.962;9.182;2023-07-31T07:36:24;21.70;99.90
19680;DHT22;9989;48.962;9.182;2023-07-31T07:38:49;21.70;99.90
19680;DHT22;9989;48.962;9.182;2023-07-31T07:41:15;21.70;99.90
19680;DHT22;9989;48.962;9.182;2023-07-31T07:43:40;21.70;99.90
19680;DHT22;9989;48.962;9.182;2023-07-31T07:46:06;21.70;99.90
19680;DHT22;9989;48.962;9.182;2023-07-31T07:48:32;21.70;99.90
19680;DHT22;9989;48.962;9.182;2023-07-31T07:50:57;21.80;99.90
19680;DHT22;9989;48.962;9.182;2023-07-31T07:53:23;21.80;99.90
19680;DHT22;9989;48.962;9.182;2023-07-31T07:55:48;21.90;99.90
19680;DHT22;9989;48.962;9.182;2023-07-31T07:58:14;22.00;99.90
19680;DHT22;9989;48.962;9.182;2023-07-31T08:00:39;22.00;99.90
19680;DHT22;9989;48.962;9.182;2023-07-31T08:03:06;22.00;99.90
19680;DHT22;9989;48.962;9.182;2023-07-31T08:05:34;22.00;99.90
19680;DHT22;9989;48.962;9.182;2023-07-31T08:08:00;22.10;99.90
19680;DHT22;9989;48.962;9.182;2023-07-31T08:10:25;22.10;99.90
19680;DHT22;9989;48.962;9.182;2023-07-31T08:12:51;22.10;99.90
19680;DHT22;9989;48.962;9.182;2023-07-31T08:15:16;22.10;99.90
19680;DHT22;9989;48.962;9.182;2023-07-31T08:17:42;22.10;99.90
19680;DHT22;9989;48.962;9.182;2023-07-31T08:20:08;22.00;99.90
19680;DHT22;9989;48.962;9.182;2023-07-31T08:22:34;22.10;99.90
19680;DHT22;9989;48.962;9.182;2023-07-31T08:25:00;22.20;99.90
19680;DHT22;9989;48.962;9.182;2023-07-31T08:27:25;22.20;99.90
19680;DHT22;9989;48.962;9.182;2023-07-31T08:29:52;22.20;99.90
19680;DHT22;9989;48.962;9.182;2023-07-31T08:32:19;22.30;99.90
19680;DHT22;9989;48.962;9.182;2023-07-31T08:34:44;22.40;99.90
19680;DHT22;9989;48.962;9.182;2023-07-31T08:37:10;22.50;99.90
19680;DHT22;9989;48.962;9.182;2023-07-31T08:39:36;22.70;99.90
19680;DHT22;9989;48.962;9.182;2023-07-31T08:42:08;22.70;99.90
19680;DHT22;9989;48.962;9.182;2023-07-31T08:44:34;22.70;99.90
19680;DHT22;9989;48.962;9.182;2023-07-31T08:47:01;22.70;99.90
19680;DHT22;9989;48.962;9.182;2023-07-31T08:49:30;22.70;99.90
19680;DHT22;9989;48.962;9.182;2023-07-31T08:51:57;22.70;99.90
19680;DHT22;9989;48.962;9.182;2023-07-31T08:54:23;22.60;99.90
19680;DHT22;9989;48.962;9.182;2023-07-31T08:56:50;22.60;99.90
19680;DHT22;9989;48.962;9.182;2023-07-31T08:59:17;22.60;99.90
19680;DHT22;9989;48.962;9.182;2023-07-31T09:01:46;22.70;99.90
19680;DHT22;9989;48.962;9.182;2023-07-31T09:04:14;22.80;99.90
19680;DHT22;9989;48.962;9.182;2023-07-31T09:06:40;22.80;99.90
19680;DHT22;9989;48.962;9.182;2023-07-31T09:09:07;22.90;99.90
19680;DHT22;9989;48.962;9.182;2023-07-31T09:11:34;22.90;99.90
19680;DHT22;9989;48.962;9.182;2023-07-31T09:14:00;22.90;99.90
19680;DHT22;9989;48.962;9.182;2023-07-31T09:16:33;22.90;99.90
19680;DHT22;9989;48.962;9.182;2023-07-31T09:18:58;22.90;99.90
19680;DHT22;9989;48.962;9.182;2023-07-31T09:21:27;23.00;99.90
19680;DHT22;9989;48.962;9.182;2023-07-31T09:23:54;23.00;99.90
19680;DHT22;9989;48.962;9.182;2023-07-31T09:26:36;22.90;99.90
19680;DHT22;9989;48.962;9.182;2023-07-31T09:29:05;22.90;99.90
19680;DHT22;9989;48.962;9.182;2023-07-31T09:31:43;23.00;99.90
19680;DHT22;9989;48.962;9.182;2023-07-31T09:34:10;23.00;99.90
19680;DHT22;9989;48.962;9.182;2023-07-31T09:36:47;23.10;99.90
19680;DHT22;9989;48.962;9.182;2023-07-31T09:39:14;23.20;99.90
19680;DHT22;9989;48.962;9.182;2023-07-31T09:41:43;23.20;99.90
19680;DHT22;9989;48.962;9.182;2023-07-31T09:44:10;23.20;99.90
19680;DHT22;9989;48.962;9.182;2023-07-31T09:46:36;23.30;99.80
19680;DHT22;9989;48.962;9.182;2023-07-31T09:49:10;23.40;99.90
19680;DHT22;9989;48.962;9.182;2023-07-31T09:51:37;23.60;99.00
19680;DHT22;9989;48.962;9.182;2023-07-31T09:54:16;23.60;98.30
19680;DHT22;9989;48.962;9.182;2023-07-31T09:56:44;23.60;98.20
19680;DHT22;9989;48.962;9.182;2023-07-31T09:59:14;23.50;98.40
19680;DHT22;9989;48.962;9.182;2023-07-31T10:01:41;23.60;98.50
19680;DHT22;9989;48.962;9.182;2023-07-31T10:04:09;23.70;97.60
19680;DHT22;9989;48.962;9.182;2023-07-31T10:06:36;23.70;97.40
19680;DHT22;9989;48.962;9.182;2023-07-31T10:09:06;23.70;97.50
19680;DHT22;9989;48.962;9.182;2023-07-31T10:11:38;23.70;97.80
19680;DHT22;9989;48.962;9.182;2023-07-31T10:14:07;23.70;97.20
19680;DHT22;9989;48.962;9.182;2023-07-31T10:16:37;23.70;97.20
19680;DHT22;9989;48.962;9.182;2023-07-31T10:19:03;23.70;97.30
19680;DHT22;9989;48.962;9.182;2023-07-31T10:21:29;23.90;97.40
19680;DHT22;9989;48.962;9.182;2023-07-31T10:23:55;24.00;97.00
19680;DHT22;9989;48.962;9.182;2023-07-31T10:26:23;24.10;97.00
19680;DHT22;9989;48.962;9.182;2023-07-31T10:28:50;24.30;96.60
19680;DHT22;9989;48.962;9.182;2023-07-31T10:31:17;24.30;96.50
19680;DHT22;9989;48.962;9.182;2023-07-31T10:33:45;24.40;96.00
19680;DHT22;9989;48.962;9.182;2023-07-31T10:36:28;24.30;95.30
19680;DHT22;9989;48.962;9.182;2023-07-31T10:38:55;24.30;95.70
19680;DHT22;9989;48.962;9.182;2023-07-31T10:41:29;24.20;95.80
19680;DHT22;9989;48.962;9.182;2023-07-31T10:43:58;24.10;95.80
19680;DHT22;9989;48.962;9.182;2023-07-31T10:46:23;24.00;96.20
19680;DHT22;9989;48.962;9.182;2023-07-31T10:49:01;24.00;96.70
19680;DHT22;9989;48.962;9.182;2023-07-31T10:51:33;23.90;95.60
19680;DHT22;9989;48.962;9.182;2023-07-31T10:54:13;23.90;95.30
19680;DHT22;9989;48.962;9.182;2023-07-31T10:56:40;23.80;95.60
19680;DHT22;9989;48.962;9.182;2023-07-31T10:59:09;23.80;95.90
19680;DHT22;9989;48.962;9.182;2023-07-31T11:01:51;23.90;95.30
19680;DHT22;9989;48.962;9.182;2023-07-31T11:04:25;24.00;95.50
19680;DHT22;9989;48.962;9.182;2023-07-31T11:07:01;24.00;95.50
19680;DHT22;9989;48.962;9.182;2023-07-31T11:09:30;24.20;95.00
19680;DHT22;9989;48.962;9.182;2023-07-31T11:11:56;24.30;95.30
19680;DHT22;9989;48.962;9.182;2023-07-31T11:14:22;24.60;93.90
19680;DHT22;9989;48.962;9.182;2023-07-31T11:16:50;24.80;94.30
19680;DHT22;9989;48.962;9.182;2023-07-31T11:19:23;25.00;93.20
19680;DHT22;9989;48.962;9.182;2023-07-31T11:21:49;25.10;93.00
19680;DHT22;9989;48.962;9.182;2023-07-31T11:24:15;25.10;92.40
19680;DHT22;9989;48.962;9.182;2023-07-31T11:26:51;25.00;92.50
19680;DHT22;9989;48.962;9.182;2023-07-31T11:29:18;25.00;92.70
19680;DHT22;9989;48.962;9.182;2023-07-31T11:31:44;25.10;93.50
19680;DHT22;9989;48.962;9.182;2023-07-31T11:34:10;25.30;92.70
19680;DHT22;9989;48.962;9.182;2023-07-31T11:36:35;25.60;91.80
19680;DHT22;9989;48.962;9.182;2023-07-31T11:39:05;25.80;91.80
19680;DHT22;9989;48.962;9.182;2023-07-31T11:41:32;25.90;91.70
19680;DHT22;9989;48.962;9.182;2023-07-31T11:44:01;25.90;91.40
19680;DHT22;9989;48.962;9.182;2023-07-31T11:46:30;25.90;92.20
19680;DHT22;9989;48.962;9.182;2023-07-31T11:48:59;25.90;91.70
19680;DHT22;9989;48.962;9.182;2023-07-31T11:51:27;25.90;91.40
19680;DHT22;9989;48.962;9.182;2023-07-31T11:53:56;25.90;91.00
19680;DHT22;9989;48.962;9.182;2023-07-31T11:56:23;25.80;91.40
19680;DHT22;9989;48.962;9.182;2023-07-31T11:58:57;25.80;91.30
19680;DHT22;9989;48.962;9.182;2023-07-31T12:01:23;25.90;91.40
19680;DHT22;9989;48.962;9.182;2023-07-31T12:03:50;26.00;90.80
19680;DHT22;9989;48.962;9.182;2023-07-31T12:06:16;26.20;91.10
19680;DHT22;9989;48.962;9.182;2023-07-31T12:08:42;26.40;90.50
19680;DHT22;9989;48.962;9.182;2023-07-31T12:11:09;26.50;90.40
19680;DHT22;9989;48.962;9.182;2023-07-31T12:13:38;26.40;89.40
19680;DHT22;9989;48.962;9.182;2023-07-31T12:16:04;26.40;90.00
19680;DHT22;9989;48.962;9.182;2023-07-31T12:18:35;26.30;88.80
19680;DHT22;9989;48.962;9.182;2023-07-31T12:21:02;26.20;89.20
19680;DHT22;9989;48.962;9.182;2023-07-31T12:23:30;26.10;89.90
19680;DHT22;9989;48.962;9.182;2023-07-31T12:26:16;26.00;88.20
19680;DHT22;9989;48.962;9.182;2023-07-31T12:28:43;26.00;87.20
19680;DHT22;9989;48.962;9.182;2023-07-31T12:31:15;25.80;87.70
19680;DHT22;9989;48.962;9.182;2023-07-31T12:33:43;25.80;87.80
19680;DHT22;9989;48.962;9.182;2023-07-31T12:36:13;25.90;88.40
19680;DHT22;9989;48.962;9.182;2023-07-31T12:38:39;25.90;87.50
19680;DHT22;9989;48.962;9.182;2023-07-31T12:41:05;25.90;88.20
19680;DHT22;9989;48.962;9.182;2023-07-31T12:43:32;26.00;89.20
19680;DHT22;9989;48.962;9.182;2023-07-31T12:45:58;25.90;87.90
19680;DHT22;9989;48.962;9.182;2023-07-31T12:48:24;25.90;88.00
19680;DHT22;9989;48.962;9.182;2023-07-31T12:50:50;25.90;88.10
19680;DHT22;9989;48.962;9.182;2023-07-31T12:53:16;25.90;88.10
19680;DHT22;9989;48.962;9.182;2023-07-31T12:55:41;25.80;87.70
19680;DHT22;9989;48.962;9.182;2023-07-31T12:58:07;25.80;87.10
19680;DHT22;9989;48.962;9.182;2023-07-31T13:00:33;25.70;87.40
19680;DHT22;9989;48.962;9.182;2023-07-31T13:02:59;25.60;87.10
19680;DHT22;9989;48.962;9.182;2023-07-31T13:05:25;25.60;88.30
19680;DHT22;9989;48.962;9.182;2023-07-31T13:07:51;25.60;87.60
19680;DHT22;9989;48.962;9.182;2023-07-31T13:10:16;25.50;87.30
19680;DHT22;9989;48.962;9.182;2023-07-31T13:12:42;25.40;86.70
19680;DHT22;9989;48.962;9.182;2023-07-31T13:15:08;25.30;87.10
19680;DHT22;9989;48.962;9.182;2023-07-31T13:17:33;25.30;88.00
19680;DHT22;9989;48.962;9.182;2023-07-31T13:19:59;25.20;87.70
19680;DHT22;9989;48.962;9.182;2023-07-31T13:22:25;25.10;88.60
19680;DHT22;9989;48.962;9.182;2023-07-31T13:24:51;25.10;89.20
19680;DHT22;9989;48.962;9.182;2023-07-31T13:27:16;25.10;90.40
19680;DHT22;9989;48.962;9.182;2023-07-31T13:29:44;25.20;90.50
19680;DHT22;9989;48.962;9.182;2023-07-31T13:32:10;25.20;88.80
19680;DHT22;9989;48.962;9.182;2023-07-31T13:34:35;25.20;90.00
19680;DHT22;9989;48.962;9.182;2023-07-31T13:37:01;25.40;90.90
19680;DHT22;9989;48.962;9.182;2023-07-31T13:39:27;25.50;90.40
19680;DHT22;9989;48.962;9.182;2023-07-31T13:41:52;25.60;90.70
19680;DHT22;9989;48.962;9.182;2023-07-31T13:44:18;25.60;90.40
19680;DHT22;9989;48.962;9.182;2023-07-31T13:46:43;25.60;90.30
19680;DHT22;9989;48.962;9.182;2023-07-31T13:49:09;25.70;90.50
19680;DHT22;9989;48.962;9.182;2023-07-31T13:51:34;25.70;90.70
19680;DHT22;9989;48.962;9.182;2023-07-31T13:54:01;25.60;90.30
19680;DHT22;9989;48.962;9.182;2023-07-31T13:56:26;25.60;90.60
19680;DHT22;9989;48.962;9.182;2023-07-31T13:58:52;25.60;90.60
19680;DHT22;9989;48.962;9.182;2023-07-31T14:01:18;25.60;90.50
19680;DHT22;9989;48.962;9.182;2023-07-31T14:03:43;25.60;90.50
19680;DHT22;9989;48.962;9.182;2023-07-31T14:06:09;25.60;90.00
19680;DHT22;9989;48.962;9.182;2023-07-31T14:08:34;25.70;90.20
19680;DHT22;9989;48.962;9.182;2023-07-31T14:11:00;25.70;89.70
19680;DHT22;9989;48.962;9.182;2023-07-31T14:13:25;25.80;90.30
19680;DHT22;9989;48.962;9.182;2023-07-31T14:15:51;25.90;89.80
19680;DHT22;9989;48.962;9.182;2023-07-31T14:18:17;26.00;89.50
19680;DHT22;9989;48.962;9.182;2023-07-31T14:20:43;26.10;87.90
19680;DHT22;9989;48.962;9.182;2023-07-31T14:23:08;26.00;87.60
19680;DHT22;9989;48.962;9.182;2023-07-31T14:25:34;25.90;88.70
19680;DHT22;9989;48.962;9.182;2023-07-31T14:27:59;25.90;88.10
19680;DHT22;9989;48.962;9.182;2023-07-31T14:30:25;26.00;89.40
19680;DHT22;9989;48.962;9.182;2023-07-31T14:32:50;26.10;88.60
19680;DHT22;9989;48.962;9.182;2023-07-31T14:35:16;26.20;88.50
19680;DHT22;9989;48.962;9.182;2023-07-31T14:37:43;26.30;87.80
19680;DHT22;9989;48.962;9.182;2023-07-31T14:40:10;26.20;86.70
19680;DHT22;9989;48.962;9.182;2023-07-31T14:42:36;26.20;87.50
19680;DHT22;9989;48.962;9.182;2023-07-31T14:45:04;26.20;86.70
19680;DHT22;9989;48.962;9.182;2023-07-31T14:47:29;26.20;86.40
19680;DHT22;9989;48.962;9.182;2023-07-31T14:49:56;26.00;86.60
19680;DHT22;9989;48.962;9.182;2023-07-31T14:52:22;25.90;87.70
19680;DHT22;9989;48.962;9.182;2023-07-31T14:54:48;25.80;88.40
19680;DHT22;9989;48.962;9.182;2023-07-31T14:57:13;25.80;88.30
19680;DHT22;9989;48.962;9.182;2023-07-31T14:59:39;25.80;88.50
19680;DHT22;9989;48.962;9.182;2023-07-31T15:02:05;25.80;89.10
19680;DHT22;9989;48.962;9.182;2023-07-31T15:04:31;25.80;89.00
19680;DHT22;9989;48.962;9.182;2023-07-31T15:06:56;25.70;88.90
19680;DHT22;9989;48.962;9.182;2023-07-31T15:09:22;25.60;88.40
19680;DHT22;9989;48.962;9.182;2023-07-31T15:11:48;25.40;89.40
19680;DHT22;9989;48.962;9.182;2023-07-31T15:14:13;25.20;90.00
19680;DHT22;9989;48.962;9.182;2023-07-31T15:16:39;25.20;90.70
19680;DHT22;9989;48.962;9.182;2023-07-31T15:19:04;25.20;90.70
19680;DHT22;9989;48.962;9.182;2023-07-31T15:21:30;25.30;90.90
19680;DHT22;9989;48.962;9.182;2023-07-31T15:23:56;25.50;90.30
19680;DHT22;9989;48.962;9.182;2023-07-31T15:26:21;25.60;90.00
19680;DHT22;9989;48.962;9.182;2023-07-31T15:28:50;25.80;90.10
19680;DHT22;9989;48.962;9.182;2023-07-31T15:31:20;25.80;88.30
19680;DHT22;9989;48.962;9.182;2023-07-31T15:33:47;25.90;88.60
19680;DHT22;9989;48.962;9.182;2023-07-31T15:36:13;26.00;88.80
19680;DHT22;9989;48.962;9.182;2023-07-31T15:38:39;26.00;88.40
19680;DHT22;9989;48.962;9.182;2023-07-31T15:41:05;26.00;88.90
19680;DHT22;9989;48.962;9.182;2023-07-31T15:43:31;26.00;88.20
19680;DHT22;9989;48.962;9.182;2023-07-31T15:45:57;26.00;88.70